createdAt,value
2018-10-19T00:00:12.055Z,36.83
2018-10-19T00:01:15.379Z,35.85
2018-10-19T00:02:18.740Z,35.25
2018-10-19T00:03:22.137Z,32.17
2018-10-19T00:04:25.540Z,34.75
2018-10-19T00:05:28.862Z,34.65
2018-10-19T00:06:32.205Z,39.98
2018-10-19T00:07:35.556Z,33.25
2018-10-19T00:08:38.888Z,32.90
2018-10-19T00:09:42.254Z,33.70
2018-10-19T00:10:45.583Z,35.88
2018-10-19T00:11:48.939Z,39.67
2018-10-19T00:12:52.333Z,35.98
2018-10-19T00:13:55.613Z,35.15
2018-10-19T00:14:59.058Z,31.62
2018-10-19T00:16:02.385Z,35.40
2018-10-19T00:17:05.761Z,45.17
2018-10-19T00:18:09.224Z,34.85
2018-10-19T00:19:12.567Z,28.73
2018-10-19T00:20:15.914Z,32.20
2018-10-19T00:21:19.270Z,29.42
2018-10-19T00:22:22.618Z,31.17
2018-10-19T00:23:25.980Z,30.77
2018-10-19T00:24:29.323Z,31.23
2018-10-19T00:25:32.720Z,40.75
2018-10-19T00:26:36.068Z,31.93
2018-10-19T00:27:39.399Z,29.65
2018-10-19T00:28:42.748Z,30.23
2018-10-19T00:29:46.069Z,33.80
2018-10-19T00:30:49.403Z,28.73
2018-10-19T00:31:52.751Z,28.10
2018-10-19T00:32:56.096Z,30.80
2018-10-19T00:33:59.432Z,31.42
2018-10-19T00:35:02.821Z,35.63
2018-10-19T00:36:06.161Z,33.48
2018-10-19T00:37:09.487Z,34.00
2018-10-19T00:38:12.880Z,32.50
2018-10-19T00:39:16.270Z,32.23
2018-10-19T00:40:19.627Z,29.48
2018-10-19T00:41:23.050Z,30.30
2018-10-19T00:42:26.384Z,34.63
2018-10-19T00:43:29.748Z,34.70
2018-10-19T00:44:33.068Z,30.68
2018-10-19T00:45:41.804Z,33.20
2018-10-19T00:46:45.127Z,34.43
2018-10-19T00:47:48.480Z,31.62
2018-10-19T00:48:51.803Z,37.17
2018-10-19T00:49:55.119Z,33.13
2018-10-19T00:50:58.504Z,33.33
2018-10-19T00:52:01.811Z,33.20
2018-10-19T00:53:05.711Z,33.70
2018-10-19T00:54:09.004Z,31.50
2018-10-19T00:55:12.356Z,33.20
2018-10-19T00:56:15.680Z,37.65
2018-10-19T00:57:19.034Z,25.72
2018-10-19T00:58:22.393Z,30.57
2018-10-19T00:59:25.867Z,28.62
2018-10-19T01:00:37.500Z,27.60
2018-10-19T01:01:40.875Z,29.23
2018-10-19T01:02:44.199Z,30.82
2018-10-19T01:03:47.532Z,34.08
2018-10-19T01:04:50.847Z,27.77
2018-10-19T01:05:54.220Z,28.45
2018-10-19T01:06:57.542Z,28.40
2018-10-19T01:08:00.952Z,30.77
2018-10-19T01:09:05.981Z,27.25
2018-10-19T01:10:09.223Z,30.10
2018-10-19T01:11:12.592Z,26.40
2018-10-19T01:12:15.889Z,32.15
2018-10-19T01:13:19.243Z,28.60
2018-10-19T01:14:22.568Z,29.67
2018-10-19T01:15:27.225Z,27.22
2018-10-19T01:16:30.558Z,29.35
2018-10-19T01:17:33.871Z,26.00
2018-10-19T01:18:37.233Z,22.35
2018-10-19T01:19:40.565Z,28.80
2018-10-19T01:20:43.881Z,27.62
2018-10-19T01:21:47.265Z,21.40
2018-10-19T01:22:50.607Z,26.25
2018-10-19T01:23:53.962Z,15.78
2018-10-19T01:24:57.342Z,14.70
2018-10-19T01:26:00.695Z,14.60
2018-10-19T01:27:04.038Z,13.03
2018-10-19T01:28:07.376Z,8.13
2018-10-19T01:29:10.724Z,11.38
2018-10-19T01:30:14.078Z,14.85
2018-10-19T01:31:17.430Z,13.75
2018-10-19T01:32:20.747Z,11.43
2018-10-19T01:33:24.055Z,10.88
2018-10-19T01:34:27.376Z,8.35
2018-10-19T01:35:30.733Z,8.98
2018-10-19T01:36:39.475Z,10.68
2018-10-19T01:37:42.802Z,5.47
2018-10-19T01:38:46.105Z,8.63
2018-10-19T01:39:49.417Z,11.85
2018-10-19T01:40:52.775Z,4.20
2018-10-19T01:41:56.108Z,5.92
2018-10-19T01:42:59.491Z,8.50
2018-10-19T01:44:02.807Z,8.23
2018-10-19T01:45:07.384Z,5.95
2018-10-19T01:46:10.643Z,4.33
2018-10-19T01:47:14.046Z,9.00
2018-10-19T01:48:17.370Z,7.62
2018-10-19T01:49:20.967Z,5.55
2018-10-19T01:50:24.283Z,6.05
2018-10-19T01:51:27.603Z,12.78
2018-10-19T01:52:30.915Z,5.80
2018-10-19T01:53:34.248Z,7.53
2018-10-19T01:54:37.562Z,5.83
2018-10-19T01:55:40.871Z,8.85
2018-10-19T01:56:44.216Z,5.95
2018-10-19T01:57:47.533Z,15.68
2018-10-19T01:58:50.846Z,8.38
2018-10-19T01:59:54.164Z,11.22
2018-10-19T02:00:57.483Z,6.70
2018-10-19T02:02:00.863Z,9.65
2018-10-19T02:03:04.301Z,3.40
2018-10-19T02:04:07.631Z,5.58
2018-10-19T02:05:11.015Z,16.05
2018-10-19T02:06:14.291Z,9.58
2018-10-19T02:07:17.732Z,5.70
2018-10-19T02:08:21.035Z,2.98
2018-10-19T02:09:24.356Z,7.05
2018-10-19T02:10:27.663Z,3.50
2018-10-19T02:11:30.979Z,5.28
2018-10-19T02:12:34.327Z,5.03
2018-10-19T02:13:37.645Z,5.33
2018-10-19T02:14:40.990Z,3.55
2018-10-19T02:15:44.335Z,2.65
2018-10-19T02:16:47.693Z,4.33
2018-10-19T02:17:51.084Z,3.90
2018-10-19T02:18:54.416Z,6.58
2018-10-19T02:19:57.732Z,5.00
2018-10-19T02:21:01.069Z,4.08
2018-10-19T02:22:04.698Z,4.37
2018-10-19T02:23:08.169Z,2.90
2018-10-19T02:24:11.384Z,2.42
2018-10-19T02:25:14.709Z,4.03
2018-10-19T02:26:18.059Z,3.25
2018-10-19T02:27:21.428Z,3.83
2018-10-19T02:28:24.806Z,5.47
2018-10-19T02:29:28.797Z,3.85
2018-10-19T02:30:32.110Z,6.60
2018-10-19T02:31:35.427Z,5.47
2018-10-19T02:32:38.791Z,4.30
2018-10-19T02:33:42.138Z,13.50
2018-10-19T02:34:45.467Z,2.70
2018-10-19T02:35:48.820Z,5.97
2018-10-19T02:36:52.184Z,8.10
2018-10-19T02:37:55.509Z,6.17
2018-10-19T02:38:58.892Z,5.40
2018-10-19T02:40:02.378Z,3.72
2018-10-19T02:41:05.991Z,3.83
2018-10-19T02:42:09.368Z,7.87
2018-10-19T02:43:12.705Z,10.32
2018-10-19T02:44:16.028Z,3.25
2018-10-19T02:45:19.355Z,3.47
2018-10-19T02:46:22.685Z,10.93
2018-10-19T02:47:26.066Z,7.30
2018-10-19T02:48:29.387Z,3.02
2018-10-19T02:49:32.708Z,9.23
2018-10-19T02:50:36.039Z,3.70
2018-10-19T02:51:39.369Z,7.08
2018-10-19T02:52:42.727Z,7.58
2018-10-19T02:53:46.068Z,3.90
2018-10-19T02:54:49.402Z,5.20
2018-10-19T02:55:52.717Z,8.78
2018-10-19T02:56:56.052Z,7.03
2018-10-19T02:57:59.423Z,3.90
2018-10-19T02:59:02.944Z,5.40
2018-10-19T03:00:08.568Z,6.28
2018-10-19T03:01:11.938Z,2.65
2018-10-19T03:02:15.268Z,6.97
2018-10-19T03:03:18.629Z,3.08
2018-10-19T03:04:21.959Z,8.78
2018-10-19T03:05:25.279Z,3.98
2018-10-19T03:06:28.613Z,9.55
2018-10-19T03:07:31.952Z,4.53
2018-10-19T03:08:35.307Z,2.87
2018-10-19T03:09:38.635Z,4.55
2018-10-19T03:10:41.991Z,4.40
2018-10-19T03:11:45.406Z,6.30
2018-10-19T03:12:48.678Z,7.20
2018-10-19T03:13:52.004Z,4.20
2018-10-19T03:14:55.372Z,5.53
2018-10-19T03:15:58.703Z,3.15
2018-10-19T03:17:02.080Z,4.47
2018-10-19T03:18:05.419Z,7.35
2018-10-19T03:19:08.887Z,1.77
2018-10-19T03:20:12.254Z,7.08
2018-10-19T03:21:15.729Z,8.55
2018-10-19T03:22:18.922Z,5.75
2018-10-19T03:23:22.231Z,4.85
2018-10-19T03:24:25.576Z,5.35
2018-10-19T03:25:28.988Z,4.70
2018-10-19T03:26:32.318Z,2.50
2018-10-19T03:27:35.644Z,1.60
2018-10-19T03:29:48.724Z,1.40
2018-10-19T03:30:52.100Z,7.33
2018-10-19T03:31:55.424Z,3.00
2018-10-19T03:32:58.820Z,4.65
2018-10-19T03:34:02.134Z,2.67
2018-10-19T03:35:06.060Z,4.60
2018-10-19T03:36:09.383Z,8.88
2018-10-19T03:37:12.708Z,4.22
2018-10-19T03:38:16.062Z,2.72
2018-10-19T03:39:20.030Z,5.30
2018-10-19T03:40:23.147Z,3.08
2018-10-19T03:41:26.481Z,7.87
2018-10-19T03:42:29.856Z,6.35
2018-10-19T03:43:33.171Z,2.75
2018-10-19T03:44:36.500Z,7.05
2018-10-19T03:45:39.844Z,4.33
2018-10-19T03:46:43.160Z,6.42
2018-10-19T03:47:46.511Z,7.30
2018-10-19T03:48:49.911Z,5.45
2018-10-19T03:49:53.300Z,2.15
2018-10-19T03:50:56.684Z,1.55
2018-10-19T03:52:00.009Z,5.08
2018-10-19T03:53:03.382Z,6.80
2018-10-19T03:54:06.764Z,8.93
2018-10-19T03:55:10.100Z,2.22
2018-10-19T03:56:13.448Z,4.33
2018-10-19T03:57:16.858Z,7.10
2018-10-19T03:58:20.140Z,6.35
2018-10-19T03:59:23.503Z,4.92
2018-10-19T04:00:26.848Z,4.70
2018-10-19T04:01:30.174Z,5.45
2018-10-19T04:02:33.515Z,4.25
2018-10-19T04:03:36.951Z,4.80
2018-10-19T04:04:40.307Z,6.12
2018-10-19T04:05:43.651Z,7.20
2018-10-19T04:06:47.111Z,5.05
2018-10-19T04:07:50.443Z,3.30
2018-10-19T04:08:53.777Z,6.95
2018-10-19T04:09:57.106Z,2.90
2018-10-19T04:11:00.467Z,5.40
2018-10-19T04:12:03.818Z,5.47
2018-10-19T04:13:07.153Z,5.67
2018-10-19T04:14:11.667Z,5.00
2018-10-19T04:15:15.142Z,2.42
2018-10-19T04:16:18.336Z,4.62
2018-10-19T04:17:21.653Z,3.22
2018-10-19T04:18:25.034Z,6.20
2018-10-19T04:19:28.388Z,6.45
2018-10-19T04:20:31.741Z,3.27
2018-10-19T04:21:35.095Z,1.72
2018-10-19T04:22:38.428Z,6.33
2018-10-19T04:23:41.758Z,7.03
2018-10-19T04:24:45.108Z,10.28
2018-10-19T04:25:48.487Z,2.80
2018-10-19T04:26:51.845Z,4.15
2018-10-19T04:27:55.172Z,5.80
2018-10-19T04:28:58.635Z,2.92
2018-10-19T04:30:01.915Z,4.22
2018-10-19T04:31:05.289Z,7.53
2018-10-19T04:32:08.661Z,4.33
2018-10-19T04:33:12.083Z,4.35
2018-10-19T04:34:15.312Z,2.30
2018-10-19T04:35:18.635Z,5.30
2018-10-19T04:36:21.951Z,9.93
2018-10-19T04:37:25.297Z,3.27
2018-10-19T04:38:28.611Z,5.97
2018-10-19T04:39:32.018Z,5.25
2018-10-19T04:40:35.358Z,2.45
2018-10-19T04:41:38.909Z,8.75
2018-10-19T04:42:42.095Z,3.30
2018-10-19T04:43:45.456Z,6.40
2018-10-19T04:44:48.825Z,8.20
2018-10-19T04:45:52.129Z,7.65
2018-10-19T04:46:55.487Z,4.40
2018-10-19T04:47:58.809Z,8.50
2018-10-19T04:49:02.142Z,7.42
2018-10-19T04:50:05.581Z,8.85
2018-10-19T04:51:08.958Z,7.42
2018-10-19T04:52:12.292Z,2.83
2018-10-19T04:53:15.664Z,2.58
2018-10-19T04:54:18.984Z,4.10
2018-10-19T04:55:22.708Z,3.35
2018-10-19T04:56:26.059Z,4.65
2018-10-19T04:57:29.424Z,3.27
2018-10-19T04:58:32.756Z,8.63
2018-10-19T04:59:36.060Z,8.25
2018-10-19T05:00:39.423Z,2.85
2018-10-19T05:01:42.974Z,5.08
2018-10-19T05:02:46.720Z,12.88
2018-10-19T05:03:49.952Z,3.83
2018-10-19T05:04:53.299Z,8.50
2018-10-19T05:05:56.660Z,4.87
2018-10-19T05:06:59.970Z,3.37
2018-10-19T05:08:03.375Z,11.10
2018-10-19T05:09:08.646Z,3.35
2018-10-19T05:10:12.132Z,5.00
2018-10-19T05:11:15.567Z,4.62
2018-10-19T05:12:18.883Z,6.40
2018-10-19T05:13:22.229Z,3.20
2018-10-19T05:14:25.552Z,4.90
2018-10-19T05:15:28.867Z,8.23
2018-10-19T05:16:32.242Z,10.32
2018-10-19T05:17:35.603Z,5.10
2018-10-19T05:18:38.942Z,5.97
2018-10-19T05:19:42.280Z,2.87
2018-10-19T05:20:45.611Z,6.03
2018-10-19T05:21:49.000Z,6.72
2018-10-19T05:22:52.378Z,2.35
2018-10-19T05:23:55.672Z,7.45
2018-10-19T05:24:58.987Z,7.97
2018-10-19T05:26:02.352Z,11.45
2018-10-19T05:27:05.721Z,4.00
2018-10-19T05:28:09.051Z,5.62
2018-10-19T05:29:12.450Z,5.53
2018-10-19T05:30:15.722Z,4.97
2018-10-19T05:31:22.108Z,5.20
2018-10-19T05:32:25.477Z,5.67
2018-10-19T05:33:28.806Z,7.97
2018-10-19T05:34:32.113Z,3.70
2018-10-19T05:35:35.481Z,1.37
2018-10-19T05:36:38.803Z,5.65
2018-10-19T05:37:42.336Z,5.87
2018-10-19T05:38:45.712Z,8.03
2018-10-19T05:39:49.063Z,2.55
2018-10-19T05:40:52.440Z,13.75
2018-10-19T05:41:55.813Z,1.85
2018-10-19T05:42:59.134Z,7.03
2018-10-19T05:44:02.494Z,4.40
2018-10-19T05:45:08.319Z,8.55
2018-10-19T05:46:11.683Z,4.10
2018-10-19T05:47:15.173Z,6.45
2018-10-19T05:48:18.412Z,2.77
2018-10-19T05:49:21.748Z,5.03
2018-10-19T05:50:25.076Z,5.10
2018-10-19T05:51:28.417Z,4.15
2018-10-19T05:52:31.780Z,5.37
2018-10-19T05:53:35.115Z,9.15
2018-10-19T05:54:38.439Z,7.00
2018-10-19T05:55:41.770Z,6.87
2018-10-19T05:56:45.092Z,3.65
2018-10-19T05:57:48.451Z,7.05
2018-10-19T05:58:51.778Z,9.40
2018-10-19T05:59:55.091Z,6.10
2018-10-19T06:00:58.415Z,8.40
2018-10-19T06:02:01.750Z,6.08
2018-10-19T06:03:05.131Z,7.40
2018-10-19T06:04:08.459Z,4.67
2018-10-19T06:05:11.819Z,8.23
2018-10-19T06:06:15.168Z,3.62
2018-10-19T06:07:18.495Z,6.97
2018-10-19T06:08:21.876Z,5.87
2018-10-19T06:09:25.203Z,5.95
2018-10-19T06:10:28.534Z,5.45
2018-10-19T06:11:31.844Z,3.12
2018-10-19T06:12:35.195Z,8.70
2018-10-19T06:13:38.591Z,11.33
2018-10-19T06:14:41.904Z,5.50
2018-10-19T06:15:45.456Z,8.40
2018-10-19T06:16:48.836Z,6.05
2018-10-19T06:17:52.173Z,4.12
2018-10-19T06:18:55.508Z,10.05
2018-10-19T06:19:58.823Z,4.40
2018-10-19T06:21:02.445Z,2.17
2018-10-19T06:22:05.776Z,6.75
2018-10-19T06:23:09.181Z,16.17
2018-10-19T06:24:12.460Z,2.80
2018-10-19T06:25:15.778Z,10.13
2018-10-19T06:26:19.167Z,6.10
2018-10-19T06:27:22.485Z,6.25
2018-10-19T06:28:25.842Z,5.28
2018-10-19T06:29:29.180Z,6.42
2018-10-19T06:30:32.511Z,8.63
2018-10-19T06:31:35.858Z,24.00
2018-10-19T06:32:39.543Z,20.50
2018-10-19T06:33:43.005Z,8.00
2018-10-19T06:34:46.276Z,3.92
2018-10-19T06:35:49.626Z,5.42
2018-10-19T06:36:52.956Z,4.05
2018-10-19T06:37:56.367Z,4.67
2018-10-19T06:38:59.683Z,7.17
2018-10-19T06:40:03.023Z,8.78
2018-10-19T06:41:06.389Z,8.90
2018-10-19T06:42:09.683Z,8.10
2018-10-19T06:43:13.011Z,15.45
2018-10-19T06:44:16.455Z,5.25
2018-10-19T06:45:19.793Z,7.45
2018-10-19T06:46:23.143Z,12.55
2018-10-19T06:47:26.487Z,10.08
2018-10-19T06:48:29.828Z,3.22
2018-10-19T06:49:33.193Z,4.90
2018-10-19T06:50:36.520Z,11.28
2018-10-19T06:51:39.846Z,6.00
2018-10-19T06:52:43.204Z,5.83
2018-10-19T06:53:46.709Z,13.28
2018-10-19T06:54:50.131Z,6.60
2018-10-19T06:55:53.528Z,12.85
2018-10-19T06:56:56.860Z,11.15
2018-10-19T06:58:00.202Z,11.53
2018-10-19T06:59:03.667Z,15.15
2018-10-19T07:00:07.029Z,8.08
2018-10-19T07:01:10.342Z,13.95
2018-10-19T07:02:16.741Z,2.22
2018-10-19T07:03:19.996Z,3.83
2018-10-19T07:04:23.371Z,6.85
2018-10-19T07:05:26.749Z,11.65
2018-10-19T07:06:30.067Z,11.75
2018-10-19T07:07:33.396Z,5.00
2018-10-19T07:08:36.790Z,6.22
2018-10-19T07:09:40.164Z,7.20
2018-10-19T07:10:43.503Z,6.28
2018-10-19T07:11:46.919Z,11.30
2018-10-19T07:12:50.260Z,7.40
2018-10-19T07:13:53.581Z,4.35
2018-10-19T07:14:56.970Z,6.87
2018-10-19T07:16:06.648Z,9.20
2018-10-19T07:17:10.025Z,5.85
2018-10-19T07:18:13.304Z,4.78
2018-10-19T07:19:16.619Z,12.68
2018-10-19T07:20:20.004Z,4.90
2018-10-19T07:21:23.338Z,12.30
2018-10-19T07:22:26.809Z,8.30
2018-10-19T07:23:30.134Z,11.73
2018-10-19T07:24:33.501Z,6.05
2018-10-19T07:25:36.826Z,3.70
2018-10-19T07:26:40.165Z,7.25
2018-10-19T07:27:43.538Z,8.20
2018-10-19T07:28:46.856Z,12.18
2018-10-19T07:29:50.216Z,9.98
2018-10-19T07:30:53.543Z,14.95
2018-10-19T07:31:56.892Z,7.17
2018-10-19T07:33:00.222Z,5.37
2018-10-19T07:34:03.544Z,2.47
2018-10-19T07:35:07.655Z,3.62
2018-10-19T07:36:10.991Z,10.10
2018-10-19T07:37:14.333Z,10.60
2018-10-19T07:38:17.665Z,10.82
2018-10-19T07:39:20.994Z,7.17
2018-10-19T07:40:24.375Z,3.30
2018-10-19T07:41:27.738Z,21.37
2018-10-19T07:42:31.088Z,13.20
2018-10-19T07:43:34.402Z,7.78
2018-10-19T07:44:37.744Z,10.10
2018-10-19T07:45:41.101Z,6.50
2018-10-19T07:46:44.441Z,4.83
2018-10-19T07:47:47.927Z,5.65
2018-10-19T07:48:51.127Z,8.48
2018-10-19T07:49:54.479Z,8.23
2018-10-19T07:50:57.882Z,12.23
2018-10-19T07:52:01.202Z,7.35
2018-10-19T07:53:04.680Z,4.80
2018-10-19T07:54:08.087Z,4.12
2018-10-19T07:55:12.020Z,12.90
2018-10-19T07:56:15.422Z,5.78
2018-10-19T07:57:18.699Z,7.20
2018-10-19T07:58:22.055Z,5.72
2018-10-19T07:59:25.375Z,7.10
2018-10-19T08:00:28.693Z,7.72
2018-10-19T08:01:32.048Z,15.38
2018-10-19T08:02:35.372Z,8.98
2018-10-19T08:03:38.687Z,9.38
2018-10-19T08:04:42.050Z,6.15
2018-10-19T08:05:45.376Z,5.42
2018-10-19T08:06:48.687Z,7.92
2018-10-19T08:07:52.120Z,12.13
2018-10-19T08:08:55.415Z,6.70
2018-10-19T08:09:59.143Z,8.55
2018-10-19T08:11:02.514Z,13.78
2018-10-19T08:12:05.902Z,7.47
2018-10-19T08:13:09.227Z,14.38
2018-10-19T08:14:12.604Z,5.50
2018-10-19T08:15:15.912Z,5.45
2018-10-19T08:16:19.437Z,12.07
2018-10-19T08:17:22.809Z,5.58
2018-10-19T08:18:26.139Z,7.45
2018-10-19T08:19:29.480Z,12.90
2018-10-19T08:20:32.879Z,6.35
2018-10-19T08:21:36.208Z,6.37
2018-10-19T08:22:39.634Z,6.47
2018-10-19T08:23:42.955Z,12.18
2018-10-19T08:24:46.275Z,8.03
2018-10-19T08:25:49.741Z,3.65
2018-10-19T08:26:53.183Z,5.37
2018-10-19T08:27:56.518Z,9.48
2018-10-19T08:28:59.874Z,7.08
2018-10-19T08:30:03.276Z,8.75
2018-10-19T08:31:06.735Z,9.03
2018-10-19T08:32:10.432Z,8.65
2018-10-19T08:33:13.708Z,4.47
2018-10-19T08:34:17.064Z,16.00
2018-10-19T08:35:20.389Z,10.75
2018-10-19T08:36:23.895Z,3.62
2018-10-19T08:37:27.309Z,5.70
2018-10-19T08:38:30.608Z,9.60
2018-10-19T08:39:33.968Z,6.35
2018-10-19T08:40:37.279Z,5.40
2018-10-19T08:41:40.639Z,7.35
2018-10-19T08:42:43.930Z,9.63
2018-10-19T08:43:47.249Z,4.78
2018-10-19T08:44:50.596Z,8.20
2018-10-19T08:45:53.903Z,14.10
2018-10-19T08:46:57.317Z,7.12
2018-10-19T08:48:00.607Z,7.15
2018-10-19T08:49:03.940Z,10.95
2018-10-19T08:50:07.461Z,6.75
2018-10-19T08:51:10.831Z,8.23
2018-10-19T08:52:14.160Z,12.58
2018-10-19T08:53:17.610Z,8.93
2018-10-19T08:54:20.815Z,6.45
2018-10-19T08:55:24.147Z,26.23
2018-10-19T08:56:27.471Z,5.72
2018-10-19T08:57:30.840Z,10.48
2018-10-19T08:58:34.147Z,4.22
2018-10-19T08:59:37.468Z,3.85
2018-10-19T09:00:40.796Z,7.87
2018-10-19T09:01:44.106Z,5.05
2018-10-19T09:02:47.459Z,8.60
2018-10-19T09:03:50.800Z,14.40
2018-10-19T09:04:54.153Z,12.90
2018-10-19T09:05:57.496Z,10.18
2018-10-19T09:07:00.815Z,8.45
2018-10-19T09:08:04.163Z,10.80
2018-10-19T09:09:09.169Z,19.42
2018-10-19T09:10:12.443Z,6.40
2018-10-19T09:11:15.828Z,15.10
2018-10-19T09:12:19.115Z,10.03
2018-10-19T09:13:22.500Z,3.90
2018-10-19T09:14:37.000Z,21.35
2018-10-19T09:15:40.348Z,5.87
2018-10-19T09:16:43.675Z,5.92
2018-10-19T09:17:46.986Z,5.45
2018-10-19T09:18:50.344Z,5.72
2018-10-19T09:19:53.955Z,9.38
2018-10-19T09:20:57.334Z,6.92
2018-10-19T09:22:00.647Z,9.23
2018-10-19T09:23:04.098Z,14.38
2018-10-19T09:24:07.407Z,13.38
2018-10-19T09:25:10.528Z,11.57
2018-10-19T09:26:13.854Z,5.05
2018-10-19T09:27:17.373Z,13.93
2018-10-19T09:28:20.621Z,8.60
2018-10-19T09:29:23.964Z,9.33
2018-10-19T09:30:27.287Z,8.63
2018-10-19T09:31:30.631Z,9.10
2018-10-19T09:32:33.947Z,8.78
2018-10-19T09:33:37.304Z,4.83
2018-10-19T09:34:40.684Z,14.18
2018-10-19T09:35:44.151Z,12.98
2018-10-19T09:36:47.603Z,8.55
2018-10-19T09:37:50.716Z,9.65
2018-10-19T09:38:54.317Z,10.48
2018-10-19T09:39:57.699Z,12.93
2018-10-19T09:41:01.139Z,7.60
2018-10-19T09:42:04.491Z,11.00
2018-10-19T09:43:07.791Z,8.20
2018-10-19T09:44:11.103Z,9.10
2018-10-19T09:45:14.555Z,7.97
2018-10-19T09:46:17.845Z,4.60
2018-10-19T09:47:21.231Z,10.63
2018-10-19T09:48:24.519Z,14.73
2018-10-19T09:49:27.851Z,10.10
2018-10-19T09:50:31.206Z,8.63
2018-10-19T09:51:34.612Z,14.50
2018-10-19T09:52:37.956Z,9.43
2018-10-19T09:53:41.408Z,10.45
2018-10-19T09:54:44.724Z,8.30
2018-10-19T09:55:48.035Z,7.25
2018-10-19T09:56:51.351Z,15.83
2018-10-19T09:57:54.671Z,8.33
2018-10-19T09:58:58.045Z,8.25
2018-10-19T10:00:01.381Z,5.75
2018-10-19T10:01:09.032Z,12.63
2018-10-19T10:02:12.374Z,10.32
2018-10-19T10:03:15.696Z,13.40
2018-10-19T10:04:19.007Z,10.68
2018-10-19T10:05:22.357Z,10.48
2018-10-19T10:06:25.732Z,13.43
2018-10-19T10:07:29.053Z,12.82
2018-10-19T10:08:32.386Z,17.35
2018-10-19T10:09:35.734Z,14.30
2018-10-19T10:10:38.793Z,10.90
2018-10-19T10:11:41.925Z,8.08
2018-10-19T10:12:44.970Z,8.28
2018-10-19T10:13:48.071Z,7.08
2018-10-19T10:14:51.475Z,5.30
2018-10-19T10:15:55.697Z,8.53
2018-10-19T10:16:59.028Z,11.22
2018-10-19T10:18:02.343Z,14.30
2018-10-19T10:19:05.958Z,14.00
2018-10-19T10:20:15.851Z,8.70
2018-10-19T10:21:19.208Z,12.43
2018-10-19T10:22:22.537Z,12.33
2018-10-19T10:23:25.919Z,15.13
2018-10-19T10:24:29.287Z,5.08
2018-10-19T10:25:32.620Z,15.38
2018-10-19T10:26:35.971Z,8.63
2018-10-19T10:27:39.576Z,11.83
2018-10-19T10:28:42.915Z,6.95
2018-10-19T10:29:46.336Z,10.20
2018-10-19T10:30:49.664Z,7.90
2018-10-19T10:31:53.013Z,8.53
2018-10-19T10:32:56.342Z,6.78
2018-10-19T10:33:59.810Z,8.93
2018-10-19T10:35:03.124Z,15.32
2018-10-19T10:36:06.472Z,7.97
2018-10-19T10:37:09.846Z,10.03
2018-10-19T10:38:13.169Z,13.43
2018-10-19T10:39:16.625Z,9.93
2018-10-19T10:40:20.003Z,14.23
2018-10-19T10:41:23.240Z,18.03
2018-10-19T10:42:26.571Z,9.43
2018-10-19T10:43:29.960Z,12.15
2018-10-19T10:44:33.297Z,11.80
2018-10-19T10:45:36.660Z,12.28
2018-10-19T10:46:39.996Z,7.60
2018-10-19T10:47:43.323Z,12.10
2018-10-19T10:48:46.692Z,15.30
2018-10-19T10:49:50.019Z,17.70
2018-10-19T10:50:53.664Z,12.40
2018-10-19T10:51:57.006Z,11.40
2018-10-19T10:53:00.465Z,12.00
2018-10-19T10:54:03.923Z,13.40
2018-10-19T10:55:07.290Z,16.05
2018-10-19T10:56:10.627Z,9.95
2018-10-19T10:57:13.992Z,11.80
2018-10-19T10:58:17.380Z,16.55
2018-10-19T10:59:20.684Z,7.80
2018-10-19T11:00:24.070Z,10.58
2018-10-19T11:01:27.403Z,7.90
2018-10-19T11:02:30.779Z,8.13
2018-10-19T11:03:34.133Z,16.52
2018-10-19T11:04:37.535Z,12.70
2018-10-19T11:05:40.907Z,17.00
2018-10-19T11:06:44.240Z,14.07
2018-10-19T11:07:47.576Z,9.48
2018-10-19T11:08:50.910Z,10.58
2018-10-19T11:09:54.285Z,12.28
2018-10-19T11:11:09.835Z,10.25
2018-10-19T11:12:13.174Z,10.98
2018-10-19T11:13:16.560Z,13.20
2018-10-19T11:14:19.902Z,14.07
2018-10-19T11:15:23.239Z,11.48
2018-10-19T11:16:26.576Z,11.40
2018-10-19T11:17:29.955Z,17.30
2018-10-19T11:18:33.308Z,15.72
2018-10-19T11:19:36.623Z,15.15
2018-10-19T11:20:39.951Z,12.00
2018-10-19T11:21:43.273Z,17.50
2018-10-19T11:22:46.608Z,14.95
2018-10-19T11:23:50.016Z,15.58
2018-10-19T11:24:53.501Z,15.30
2018-10-19T11:25:56.836Z,17.37
2018-10-19T11:27:00.168Z,15.60
2018-10-19T11:28:03.541Z,19.27
2018-10-19T11:29:06.895Z,22.67
2018-10-19T11:30:10.348Z,14.10
2018-10-19T11:31:13.778Z,11.50
2018-10-19T11:32:17.036Z,15.85
2018-10-19T11:33:20.478Z,17.10
2018-10-19T11:34:23.815Z,27.52
2018-10-19T11:35:27.159Z,9.33
2018-10-19T11:36:30.492Z,11.03
2018-10-19T11:37:33.918Z,13.93
2018-10-19T11:38:37.175Z,15.98
2018-10-19T11:39:51.495Z,12.00
2018-10-19T11:40:54.849Z,13.65
2018-10-19T11:41:58.166Z,12.93
2018-10-19T11:43:01.540Z,10.90
2018-10-19T11:44:04.983Z,17.12
2018-10-19T11:45:08.375Z,12.53
2018-10-19T11:46:11.774Z,12.95
2018-10-19T11:47:15.048Z,12.40
2018-10-19T11:48:18.426Z,13.28
2018-10-19T11:49:21.834Z,14.15
2018-10-19T11:50:25.131Z,11.20
2018-10-19T11:51:28.451Z,15.53
2018-10-19T11:52:31.792Z,13.67
2018-10-19T11:53:35.160Z,11.00
2018-10-19T11:54:38.588Z,11.30
2018-10-19T11:55:41.903Z,8.90
2018-10-19T11:56:45.225Z,11.00
2018-10-19T11:57:49.312Z,12.23
2018-10-19T11:58:52.676Z,10.67
2018-10-19T11:59:56.032Z,12.70
2018-10-19T12:00:59.418Z,9.27
2018-10-19T12:02:02.753Z,8.60
2018-10-19T12:03:06.075Z,8.83
2018-10-19T12:04:09.478Z,11.77
2018-10-19T12:05:12.751Z,4.67
2018-10-19T12:06:16.064Z,7.93
2018-10-19T12:07:19.371Z,9.80
2018-10-19T12:08:22.711Z,6.13
2018-10-19T12:09:26.028Z,11.20
2018-10-19T12:10:29.446Z,8.93
2018-10-19T12:11:32.738Z,5.77
2018-10-19T12:12:36.402Z,6.00
2018-10-19T12:13:40.575Z,8.37
2018-10-19T12:14:43.896Z,7.23
2018-10-19T12:15:47.258Z,10.43
2018-10-19T12:16:50.710Z,10.27
2018-10-19T12:17:53.933Z,10.53
2018-10-19T12:18:57.339Z,9.93
2018-10-19T12:20:00.667Z,6.20
2018-10-19T12:21:04.001Z,11.27
2018-10-19T12:22:07.322Z,6.40
2018-10-19T12:23:10.643Z,13.13
2018-10-19T12:24:14.028Z,11.30
2018-10-19T12:25:17.760Z,8.00
2018-10-19T12:26:21.105Z,7.97
2018-10-19T12:27:24.423Z,13.50
2018-10-19T12:28:27.746Z,7.97
2018-10-19T12:29:31.123Z,12.45
2018-10-19T12:30:34.514Z,15.63
2018-10-19T12:31:37.849Z,15.95
2018-10-19T12:32:41.458Z,9.95
2018-10-19T12:33:44.785Z,9.08
2018-10-19T12:34:48.268Z,7.37
2018-10-19T12:35:51.591Z,8.48
2018-10-19T12:36:54.958Z,8.73
2018-10-19T12:37:58.272Z,7.90
2018-10-19T12:39:01.634Z,9.70
2018-10-19T12:40:05.337Z,9.55
2018-10-19T12:41:08.758Z,14.03
2018-10-19T12:42:12.040Z,9.55
2018-10-19T12:43:15.432Z,10.35
2018-10-19T12:44:18.711Z,7.65
2018-10-19T12:46:32.237Z,12.60
2018-10-19T12:47:38.594Z,11.28
2018-10-19T12:48:41.939Z,14.10
2018-10-19T12:49:45.589Z,5.70
2018-10-19T12:50:48.920Z,4.22
2018-10-19T12:51:52.270Z,9.55
2018-10-19T12:52:55.606Z,17.55
2018-10-19T12:53:59.018Z,6.95
2018-10-19T12:55:02.365Z,10.15
2018-10-19T12:56:05.888Z,6.97
2018-10-19T12:57:09.355Z,7.22
2018-10-19T12:58:12.661Z,11.78
2018-10-19T12:59:16.021Z,10.48
2018-10-19T13:00:19.347Z,12.90
2018-10-19T13:01:23.637Z,7.78
2018-10-19T13:02:27.045Z,10.78
2018-10-19T13:03:30.439Z,13.95
2018-10-19T13:04:33.782Z,7.23
2018-10-19T13:05:37.132Z,13.17
2018-10-19T13:06:40.471Z,7.43
2018-10-19T13:07:43.856Z,10.70
2018-10-19T13:08:47.187Z,8.53
2018-10-19T13:09:50.521Z,13.80
2018-10-19T13:10:53.887Z,8.67
2018-10-19T13:11:57.208Z,6.70
2018-10-19T13:13:00.617Z,12.53
2018-10-19T13:14:03.970Z,14.53
2018-10-19T13:15:07.629Z,8.23
2018-10-19T13:16:10.975Z,7.73
2018-10-19T13:17:14.296Z,5.60
2018-10-19T13:18:17.616Z,6.07
2018-10-19T13:19:20.997Z,6.47
2018-10-19T13:20:24.362Z,12.07
2018-10-19T13:21:27.694Z,7.73
2018-10-19T13:22:31.027Z,5.83
2018-10-19T13:23:34.616Z,4.00
2018-10-19T13:24:38.005Z,7.35
2018-10-19T13:25:41.349Z,7.58
2018-10-19T13:26:44.671Z,10.63
2018-10-19T13:27:48.017Z,7.83
2018-10-19T13:28:51.344Z,7.90
2018-10-19T13:29:54.821Z,7.05
2018-10-19T13:30:58.127Z,4.72
2018-10-19T13:32:01.491Z,8.78
2018-10-19T13:33:04.894Z,5.60
2018-10-19T13:34:08.247Z,6.80
2018-10-19T13:35:11.567Z,9.00
2018-10-19T13:36:14.949Z,6.78
2018-10-19T13:37:18.289Z,11.33
2018-10-19T13:38:22.359Z,4.67
2018-10-19T13:39:25.711Z,9.68
2018-10-19T13:40:29.077Z,10.55
2018-10-19T13:41:32.442Z,9.20
2018-10-19T13:42:35.754Z,9.00
2018-10-19T13:43:39.603Z,9.55
2018-10-19T13:44:42.990Z,6.85
2018-10-19T13:45:46.340Z,3.05
2018-10-19T13:46:49.648Z,8.95
2018-10-19T13:47:52.998Z,4.28
2018-10-19T13:48:56.318Z,9.40
2018-10-19T13:49:59.703Z,11.35
2018-10-19T13:51:03.089Z,5.75
2018-10-19T13:52:06.692Z,6.42
2018-10-19T13:53:10.092Z,7.50
2018-10-19T13:54:13.371Z,7.12
2018-10-19T13:55:16.811Z,8.05
2018-10-19T13:56:20.149Z,5.00